Platteville, Iowa
Current Conditions -  °F | °C
As of 5:55 PM on Monday 20 Oct 2014 (Local Time) from KCSQ Reporting Station
Clear Clear  
Wind Chill: 64°   Ceiling: Unl
Heat Index: 64°   Visibility: NA
Dew Point: 43°   Wind: 6mph
Humidity: 45%   Direction: 340°NNW
Pressure: 30.04"   Gusts: NA
Location:  40.6485°N, 94.5286°W
Report Text: KCSQ 202255Z AUTO 34005KT CLR 18/06 A3004 RMK AO2
Loading
Personal Weather Stations






























Interactive Weather Map
Tropical Storm Tracking
New forecast layout! Learn more

10-Day Weather Forecast

Advertisements
Track Severe Weather on mobile